sensor_id;sensor_type;location;lat;lon;timestamp;temperature;humidity
20155;DHT22;10238;49.556;10.956;2023-09-07T00:00:12;15.00;99.90
20155;DHT22;10238;49.556;10.956;2023-09-07T00:03:01;15.00;99.90
20155;DHT22;10238;49.556;10.956;2023-09-07T00:05:50;14.90;99.90
20155;DHT22;10238;49.556;10.956;2023-09-07T00:08:38;14.90;99.90
20155;DHT22;10238;49.556;10.956;2023-09-07T00:11:26;14.90;99.90
20155;DHT22;10238;49.556;10.956;2023-09-07T00:14:15;14.80;99.90
20155;DHT22;10238;49.556;10.956;2023-09-07T00:17:03;14.80;99.90
20155;DHT22;10238;49.556;10.956;2023-09-07T00:19:51;14.80;99.90
20155;DHT22;10238;49.556;10.956;2023-09-07T00:22:41;14.80;99.90
20155;DHT22;10238;49.556;10.956;2023-09-07T00:25:29;14.70;99.90
20155;DHT22;10238;49.556;10.956;2023-09-07T00:28:16;14.70;99.90
20155;DHT22;10238;49.556;10.956;2023-09-07T00:31:05;14.70;99.90
20155;DHT22;10238;49.556;10.956;2023-09-07T00:33:53;14.70;99.90
20155;DHT22;10238;49.556;10.956;2023-09-07T00:36:40;14.70;99.90
20155;DHT22;10238;49.556;10.956;2023-09-07T00:39:28;14.70;99.90
20155;DHT22;10238;49.556;10.956;2023-09-07T00:42:16;14.70;99.90
20155;DHT22;10238;49.556;10.956;2023-09-07T00:45:05;14.60;99.90
20155;DHT22;10238;49.556;10.956;2023-09-07T00:47:57;14.60;99.90
20155;DHT22;10238;49.556;10.956;2023-09-07T00:50:45;14.60;99.90
20155;DHT22;10238;49.556;10.956;2023-09-07T00:53:33;14.50;99.90
20155;DHT22;10238;49.556;10.956;2023-09-07T00:56:21;14.50;99.90
20155;DHT22;10238;49.556;10.956;2023-09-07T00:59:10;14.40;99.90
20155;DHT22;10238;49.556;10.956;2023-09-07T01:01:59;14.40;99.90
20155;DHT22;10238;49.556;10.956;2023-09-07T01:04:48;14.30;99.90
20155;DHT22;10238;49.556;10.956;2023-09-07T01:07:42;14.30;99.90
20155;DHT22;10238;49.556;10.956;2023-09-07T01:10:33;14.30;99.90
20155;DHT22;10238;49.556;10.956;2023-09-07T01:13:20;14.30;99.90
20155;DHT22;10238;49.556;10.956;2023-09-07T01:16:08;14.20;99.90
20155;DHT22;10238;49.556;10.956;2023-09-07T01:18:57;14.20;99.90
20155;DHT22;10238;49.556;10.956;2023-09-07T01:21:47;14.10;99.90
20155;DHT22;10238;49.556;10.956;2023-09-07T01:24:37;14.20;99.90
20155;DHT22;10238;49.556;10.956;2023-09-07T01:27:27;14.10;99.90
20155;DHT22;10238;49.556;10.956;2023-09-07T01:30:16;14.10;99.90
20155;DHT22;10238;49.556;10.956;2023-09-07T01:33:04;14.10;99.90
20155;DHT22;10238;49.556;10.956;2023-09-07T01:35:52;14.00;99.90
20155;DHT22;10238;49.556;10.956;2023-09-07T01:38:41;14.00;99.90
20155;DHT22;10238;49.556;10.956;2023-09-07T01:41:29;14.00;99.90
20155;DHT22;10238;49.556;10.956;2023-09-07T01:44:16;14.00;99.90
20155;DHT22;10238;49.556;10.956;2023-09-07T01:47:04;13.90;99.90
20155;DHT22;10238;49.556;10.956;2023-09-07T01:49:52;13.90;99.90
20155;DHT22;10238;49.556;10.956;2023-09-07T01:52:40;13.80;99.90
20155;DHT22;10238;49.556;10.956;2023-09-07T01:55:29;13.80;99.90
20155;DHT22;10238;49.556;10.956;2023-09-07T01:58:17;13.80;99.90
20155;DHT22;10238;49.556;10.956;2023-09-07T02:01:04;13.80;99.90
20155;DHT22;10238;49.556;10.956;2023-09-07T02:03:52;13.80;99.90
20155;DHT22;10238;49.556;10.956;2023-09-07T02:06:40;13.80;99.90
20155;DHT22;10238;49.556;10.956;2023-09-07T02:09:27;13.70;99.90
20155;DHT22;10238;49.556;10.956;2023-09-07T02:12:16;13.70;99.90
20155;DHT22;10238;49.556;10.956;2023-09-07T02:15:05;13.60;99.90
20155;DHT22;10238;49.556;10.956;2023-09-07T02:17:53;13.60;99.90
20155;DHT22;10238;49.556;10.956;2023-09-07T02:20:43;13.50;99.90
20155;DHT22;10238;49.556;10.956;2023-09-07T02:23:31;13.50;99.90
20155;DHT22;10238;49.556;10.956;2023-09-07T02:26:20;13.50;99.90
20155;DHT22;10238;49.556;10.956;2023-09-07T02:29:09;13.50;99.90
20155;DHT22;10238;49.556;10.956;2023-09-07T02:31:56;13.40;99.90
20155;DHT22;10238;49.556;10.956;2023-09-07T02:34:44;13.40;99.90
20155;DHT22;10238;49.556;10.956;2023-09-07T02:37:32;13.40;99.90
20155;DHT22;10238;49.556;10.956;2023-09-07T02:40:19;13.40;99.90
20155;DHT22;10238;49.556;10.956;2023-09-07T02:43:07;13.30;99.90
20155;DHT22;10238;49.556;10.956;2023-09-07T02:45:56;13.30;99.90
20155;DHT22;10238;49.556;10.956;2023-09-07T02:48:43;13.30;99.90
20155;DHT22;10238;49.556;10.956;2023-09-07T02:51:31;13.30;99.90
20155;DHT22;10238;49.556;10.956;2023-09-07T02:54:19;13.30;99.90
20155;DHT22;10238;49.556;10.956;2023-09-07T02:57:06;13.30;99.90
20155;DHT22;10238;49.556;10.956;2023-09-07T02:59:54;13.30;99.90
20155;DHT22;10238;49.556;10.956;2023-09-07T03:02:44;13.20;99.90
20155;DHT22;10238;49.556;10.956;2023-09-07T03:05:32;13.20;99.90
20155;DHT22;10238;49.556;10.956;2023-09-07T03:08:19;13.10;99.90
20155;DHT22;10238;49.556;10.956;2023-09-07T03:11:08;13.10;99.90
20155;DHT22;10238;49.556;10.956;2023-09-07T03:13:56;13.10;99.90
20155;DHT22;10238;49.556;10.956;2023-09-07T03:16:43;13.00;99.90
20155;DHT22;10238;49.556;10.956;2023-09-07T03:19:32;13.00;99.90
20155;DHT22;10238;49.556;10.956;2023-09-07T03:22:20;13.00;99.90
20155;DHT22;10238;49.556;10.956;2023-09-07T03:25:10;13.00;99.90
20155;DHT22;10238;49.556;10.956;2023-09-07T03:27:58;12.90;99.90
20155;DHT22;10238;49.556;10.956;2023-09-07T03:30:46;12.90;99.90
20155;DHT22;10238;49.556;10.956;2023-09-07T03:33:34;12.90;99.90
20155;DHT22;10238;49.556;10.956;2023-09-07T03:36:23;12.80;99.90
20155;DHT22;10238;49.556;10.956;2023-09-07T03:39:10;12.80;99.90
20155;DHT22;10238;49.556;10.956;2023-09-07T03:41:58;12.80;99.90
20155;DHT22;10238;49.556;10.956;2023-09-07T03:44:46;12.80;99.90
20155;DHT22;10238;49.556;10.956;2023-09-07T03:47:33;12.80;99.90
20155;DHT22;10238;49.556;10.956;2023-09-07T03:50:20;12.80;99.90
20155;DHT22;10238;49.556;10.956;2023-09-07T03:53:09;12.80;99.90
20155;DHT22;10238;49.556;10.956;2023-09-07T03:55:57;12.80;99.90
20155;DHT22;10238;49.556;10.956;2023-09-07T03:58:46;12.80;99.90
20155;DHT22;10238;49.556;10.956;2023-09-07T04:01:34;12.80;99.90
20155;DHT22;10238;49.556;10.956;2023-09-07T04:04:21;12.80;99.90
20155;DHT22;10238;49.556;10.956;2023-09-07T04:07:09;12.70;99.90
20155;DHT22;10238;49.556;10.956;2023-09-07T04:09:58;12.70;99.90
20155;DHT22;10238;49.556;10.956;2023-09-07T04:12:46;12.70;99.90
20155;DHT22;10238;49.556;10.956;2023-09-07T04:15:33;12.70;99.90
20155;DHT22;10238;49.556;10.956;2023-09-07T04:18:28;12.70;99.90
20155;DHT22;10238;49.556;10.956;2023-09-07T04:21:16;12.60;99.90
20155;DHT22;10238;49.556;10.956;2023-09-07T04:24:05;12.60;99.90
20155;DHT22;10238;49.556;10.956;2023-09-07T04:26:58;12.60;99.90
20155;DHT22;10238;49.556;10.956;2023-09-07T04:29:47;12.50;99.90
20155;DHT22;10238;49.556;10.956;2023-09-07T04:32:36;12.50;99.90
20155;DHT22;10238;49.556;10.956;2023-09-07T04:35:28;12.40;99.90
20155;DHT22;10238;49.556;10.956;2023-09-07T04:38:17;12.40;99.90
20155;DHT22;10238;49.556;10.956;2023-09-07T04:41:06;12.40;99.90
20155;DHT22;10238;49.556;10.956;2023-09-07T04:43:56;12.40;99.90
20155;DHT22;10238;49.556;10.956;2023-09-07T04:46:44;12.40;99.90
20155;DHT22;10238;49.556;10.956;2023-09-07T04:49:32;12.40;99.90
20155;DHT22;10238;49.556;10.956;2023-09-07T04:52:20;12.40;99.90
20155;DHT22;10238;49.556;10.956;2023-09-07T04:55:08;12.40;99.90
20155;DHT22;10238;49.556;10.956;2023-09-07T04:57:56;12.40;99.90
20155;DHT22;10238;49.556;10.956;2023-09-07T05:00:45;12.40;99.90
20155;DHT22;10238;49.556;10.956;2023-09-07T05:03:32;12.40;99.90
20155;DHT22;10238;49.556;10.956;2023-09-07T05:06:20;12.40;99.90
20155;DHT22;10238;49.556;10.956;2023-09-07T05:09:09;12.40;99.90
20155;DHT22;10238;49.556;10.956;2023-09-07T05:11:57;12.40;99.90
20155;DHT22;10238;49.556;10.956;2023-09-07T05:14:45;12.40;99.90
20155;DHT22;10238;49.556;10.956;2023-09-07T05:17:34;12.40;99.90
20155;DHT22;10238;49.556;10.956;2023-09-07T05:20:21;12.40;99.90
20155;DHT22;10238;49.556;10.956;2023-09-07T05:23:09;12.40;99.90
20155;DHT22;10238;49.556;10.956;2023-09-07T05:25:57;12.40;99.90
20155;DHT22;10238;49.556;10.956;2023-09-07T05:28:45;12.40;99.90
20155;DHT22;10238;49.556;10.956;2023-09-07T05:31:32;12.40;99.90
20155;DHT22;10238;49.556;10.956;2023-09-07T05:34:21;12.40;99.90
20155;DHT22;10238;49.556;10.956;2023-09-07T05:37:09;12.40;99.90
20155;DHT22;10238;49.556;10.956;2023-09-07T05:39:57;12.40;99.90
20155;DHT22;10238;49.556;10.956;2023-09-07T05:42:45;12.40;99.90
20155;DHT22;10238;49.556;10.956;2023-09-07T05:45:34;12.40;99.90
20155;DHT22;10238;49.556;10.956;2023-09-07T05:48:24;12.40;99.90
20155;DHT22;10238;49.556;10.956;2023-09-07T05:51:13;12.50;99.90
20155;DHT22;10238;49.556;10.956;2023-09-07T05:54:01;12.50;99.90
20155;DHT22;10238;49.556;10.956;2023-09-07T05:56:48;12.50;99.90
20155;DHT22;10238;49.556;10.956;2023-09-07T05:59:36;12.60;99.90
20155;DHT22;10238;49.556;10.956;2023-09-07T06:02:24;12.60;99.90
20155;DHT22;10238;49.556;10.956;2023-09-07T06:05:12;12.60;99.90
20155;DHT22;10238;49.556;10.956;2023-09-07T06:08:02;12.80;99.90
20155;DHT22;10238;49.556;10.956;2023-09-07T06:10:50;12.80;99.90
20155;DHT22;10238;49.556;10.956;2023-09-07T06:13:37;12.90;99.90
20155;DHT22;10238;49.556;10.956;2023-09-07T06:16:25;13.00;99.90
20155;DHT22;10238;49.556;10.956;2023-09-07T06:19:12;13.10;99.90
20155;DHT22;10238;49.556;10.956;2023-09-07T06:22:00;13.20;99.90
20155;DHT22;10238;49.556;10.956;2023-09-07T06:24:49;13.30;99.90
20155;DHT22;10238;49.556;10.956;2023-09-07T06:27:37;13.40;99.90
20155;DHT22;10238;49.556;10.956;2023-09-07T06:30:24;13.50;99.90
20155;DHT22;10238;49.556;10.956;2023-09-07T06:33:12;13.60;99.90
20155;DHT22;10238;49.556;10.956;2023-09-07T06:36:00;13.60;99.90
20155;DHT22;10238;49.556;10.956;2023-09-07T06:38:48;13.80;99.90
20155;DHT22;10238;49.556;10.956;2023-09-07T06:41:37;13.90;99.90
20155;DHT22;10238;49.556;10.956;2023-09-07T06:44:24;14.00;99.90
20155;DHT22;10238;49.556;10.956;2023-09-07T06:47:12;14.10;99.90
20155;DHT22;10238;49.556;10.956;2023-09-07T06:50:01;14.20;99.90
20155;DHT22;10238;49.556;10.956;2023-09-07T06:52:49;14.30;99.90
20155;DHT22;10238;49.556;10.956;2023-09-07T06:55:37;14.50;99.90
20155;DHT22;10238;49.556;10.956;2023-09-07T06:58:26;14.70;99.90
20155;DHT22;10238;49.556;10.956;2023-09-07T07:01:15;14.80;99.90
20155;DHT22;10238;49.556;10.956;2023-09-07T07:04:03;14.90;99.90
20155;DHT22;10238;49.556;10.956;2023-09-07T07:06:51;15.10;99.90
20155;DHT22;10238;49.556;10.956;2023-09-07T07:09:40;15.20;99.90
20155;DHT22;10238;49.556;10.956;2023-09-07T07:12:27;15.40;99.90
20155;DHT22;10238;49.556;10.956;2023-09-07T07:15:17;15.60;99.90
20155;DHT22;10238;49.556;10.956;2023-09-07T07:18:04;15.80;99.90
20155;DHT22;10238;49.556;10.956;2023-09-07T07:20:55;15.90;99.90
20155;DHT22;10238;49.556;10.956;2023-09-07T07:23:42;16.10;99.90
20155;DHT22;10238;49.556;10.956;2023-09-07T07:26:30;16.30;99.90
20155;DHT22;10238;49.556;10.956;2023-09-07T07:29:17;15.80;99.90
20155;DHT22;10238;49.556;10.956;2023-09-07T07:32:06;16.60;99.90
20155;DHT22;10238;49.556;10.956;2023-09-07T07:34:54;16.70;99.90
20155;DHT22;10238;49.556;10.956;2023-09-07T07:37:43;17.00;99.90
20155;DHT22;10238;49.556;10.956;2023-09-07T07:40:32;17.20;99.90
20155;DHT22;10238;49.556;10.956;2023-09-07T07:43:19;17.40;99.90
20155;DHT22;10238;49.556;10.956;2023-09-07T07:46:08;17.50;99.90
20155;DHT22;10238;49.556;10.956;2023-09-07T07:48:57;17.60;99.90
20155;DHT22;10238;49.556;10.956;2023-09-07T07:51:45;17.80;99.90
20155;DHT22;10238;49.556;10.956;2023-09-07T07:54:33;17.90;99.90
20155;DHT22;10238;49.556;10.956;2023-09-07T07:57:22;18.10;99.90
20155;DHT22;10238;49.556;10.956;2023-09-07T08:00:11;18.40;99.90
20155;DHT22;10238;49.556;10.956;2023-09-07T08:02:59;18.60;99.90
20155;DHT22;10238;49.556;10.956;2023-09-07T08:05:49;18.80;99.90
20155;DHT22;10238;49.556;10.956;2023-09-07T08:08:37;19.00;99.90
20155;DHT22;10238;49.556;10.956;2023-09-07T08:11:26;19.20;99.90
20155;DHT22;10238;49.556;10.956;2023-09-07T08:14:13;19.50;99.90
20155;DHT22;10238;49.556;10.956;2023-09-07T08:17:01;19.70;99.90
20155;DHT22;10238;49.556;10.956;2023-09-07T08:19:49;20.00;99.90
20155;DHT22;10238;49.556;10.956;2023-09-07T08:22:42;20.30;99.90
20155;DHT22;10238;49.556;10.956;2023-09-07T08:25:31;20.60;99.90
20155;DHT22;10238;49.556;10.956;2023-09-07T08:28:19;20.80;99.90
20155;DHT22;10238;49.556;10.956;2023-09-07T08:31:08;21.10;99.90
20155;DHT22;10238;49.556;10.956;2023-09-07T08:33:57;21.30;99.90
20155;DHT22;10238;49.556;10.956;2023-09-07T08:36:44;21.50;99.90
20155;DHT22;10238;49.556;10.956;2023-09-07T08:39:33;21.70;99.90
20155;DHT22;10238;49.556;10.956;2023-09-07T08:42:22;21.80;99.90
20155;DHT22;10238;49.556;10.956;2023-09-07T08:45:13;22.10;99.90
20155;DHT22;10238;49.556;10.956;2023-09-07T08:48:07;22.20;99.90
20155;DHT22;10238;49.556;10.956;2023-09-07T08:50:56;22.40;99.90
20155;DHT22;10238;49.556;10.956;2023-09-07T08:53:44;22.50;99.90
20155;DHT22;10238;49.556;10.956;2023-09-07T08:56:35;22.80;99.90
20155;DHT22;10238;49.556;10.956;2023-09-07T08:59:22;23.10;99.90
20155;DHT22;10238;49.556;10.956;2023-09-07T09:02:10;23.30;99.90
20155;DHT22;10238;49.556;10.956;2023-09-07T09:04:58;23.60;99.90
20155;DHT22;10238;49.556;10.956;2023-09-07T09:07:47;23.80;99.90
20155;DHT22;10238;49.556;10.956;2023-09-07T09:10:37;24.00;99.90
20155;DHT22;10238;49.556;10.956;2023-09-07T09:13:29;24.20;99.90
20155;DHT22;10238;49.556;10.956;2023-09-07T09:16:20;24.40;99.90
20155;DHT22;10238;49.556;10.956;2023-09-07T09:19:08;24.80;99.90
20155;DHT22;10238;49.556;10.956;2023-09-07T09:21:56;25.10;99.90
20155;DHT22;10238;49.556;10.956;2023-09-07T09:24:44;25.20;99.90
20155;DHT22;10238;49.556;10.956;2023-09-07T09:27:34;25.50;99.90
20155;DHT22;10238;49.556;10.956;2023-09-07T09:30:25;25.80;99.90
20155;DHT22;10238;49.556;10.956;2023-09-07T09:33:13;26.10;99.90
20155;DHT22;10238;49.556;10.956;2023-09-07T09:36:02;26.30;99.90
20155;DHT22;10238;49.556;10.956;2023-09-07T09:38:52;26.40;99.90
20155;DHT22;10238;49.556;10.956;2023-09-07T09:41:40;26.60;99.90
20155;DHT22;10238;49.556;10.956;2023-09-07T09:44:29;26.90;99.90
20155;DHT22;10238;49.556;10.956;2023-09-07T09:47:20;27.00;99.90
20155;DHT22;10238;49.556;10.956;2023-09-07T09:50:10;27.30;99.90
20155;DHT22;10238;49.556;10.956;2023-09-07T09:52:59;27.50;99.90
20155;DHT22;10238;49.556;10.956;2023-09-07T09:55:51;27.80;99.90
20155;DHT22;10238;49.556;10.956;2023-09-07T09:58:39;28.10;99.90
20155;DHT22;10238;49.556;10.956;2023-09-07T10:01:28;28.20;99.90
20155;DHT22;10238;49.556;10.956;2023-09-07T10:04:19;28.20;99.90
20155;DHT22;10238;49.556;10.956;2023-09-07T10:07:09;28.20;99.90
20155;DHT22;10238;49.556;10.956;2023-09-07T10:09:57;28.20;99.90
20155;DHT22;10238;49.556;10.956;2023-09-07T10:12:51;28.20;99.90
20155;DHT22;10238;49.556;10.956;2023-09-07T10:15:40;28.50;99.90
20155;DHT22;10238;49.556;10.956;2023-09-07T10:18:33;28.80;99.90
20155;DHT22;10238;49.556;10.956;2023-09-07T10:21:25;29.10;99.90
20155;DHT22;10238;49.556;10.956;2023-09-07T10:24:24;29.30;99.90
20155;DHT22;10238;49.556;10.956;2023-09-07T10:27:14;29.40;99.90
20155;DHT22;10238;49.556;10.956;2023-09-07T10:33:00;29.90;99.90
20155;DHT22;10238;49.556;10.956;2023-09-07T10:35:48;29.80;99.90
20155;DHT22;10238;49.556;10.956;2023-09-07T10:38:37;30.10;99.90
20155;DHT22;10238;49.556;10.956;2023-09-07T10:41:25;30.30;99.90
20155;DHT22;10238;49.556;10.956;2023-09-07T10:44:15;30.40;99.90
20155;DHT22;10238;49.556;10.956;2023-09-07T10:47:04;30.80;99.90
20155;DHT22;10238;49.556;10.956;2023-09-07T10:49:51;30.90;99.90
20155;DHT22;10238;49.556;10.956;2023-09-07T10:52:39;30.80;99.90
20155;DHT22;10238;49.556;10.956;2023-09-07T10:55:36;31.10;99.90
20155;DHT22;10238;49.556;10.956;2023-09-07T10:58:26;31.40;99.90
20155;DHT22;10238;49.556;10.956;2023-09-07T11:01:16;31.40;99.90
20155;DHT22;10238;49.556;10.956;2023-09-07T11:04:04;30.90;99.90
20155;DHT22;10238;49.556;10.956;2023-09-07T11:06:54;30.90;99.90
20155;DHT22;10238;49.556;10.956;2023-09-07T11:09:42;31.20;99.90
20155;DHT22;10238;49.556;10.956;2023-09-07T11:12:36;31.50;99.10
20155;DHT22;10238;49.556;10.956;2023-09-07T11:15:25;31.50;99.90
20155;DHT22;10238;49.556;10.956;2023-09-07T11:18:13;31.80;99.90
20155;DHT22;10238;49.556;10.956;2023-09-07T11:21:06;32.10;99.90
20155;DHT22;10238;49.556;10.956;2023-09-07T11:23:54;32.40;99.40
20155;DHT22;10238;49.556;10.956;2023-09-07T11:26:45;32.50;99.90
20155;DHT22;10238;49.556;10.956;2023-09-07T11:29:36;32.60;99.20
20155;DHT22;10238;49.556;10.956;2023-09-07T11:32:32;32.60;99.00
20155;DHT22;10238;49.556;10.956;2023-09-07T11:35:21;32.80;97.70
20155;DHT22;10238;49.556;10.956;2023-09-07T11:38:13;32.80;98.20
20155;DHT22;10238;49.556;10.956;2023-09-07T11:41:01;32.70;96.90
20155;DHT22;10238;49.556;10.956;2023-09-07T11:43:49;32.60;95.80
20155;DHT22;10238;49.556;10.956;2023-09-07T11:46:41;32.80;99.10
20155;DHT22;10238;49.556;10.956;2023-09-07T11:49:29;32.70;96.10
20155;DHT22;10238;49.556;10.956;2023-09-07T11:52:18;32.70;98.10
20155;DHT22;10238;49.556;10.956;2023-09-07T11:55:07;32.90;95.70
20155;DHT22;10238;49.556;10.956;2023-09-07T11:57:57;32.90;97.20
20155;DHT22;10238;49.556;10.956;2023-09-07T12:00:45;33.20;97.30
20155;DHT22;10238;49.556;10.956;2023-09-07T12:03:34;33.40;94.60
20155;DHT22;10238;49.556;10.956;2023-09-07T12:06:22;33.70;96.50
20155;DHT22;10238;49.556;10.956;2023-09-07T12:09:10;33.90;95.10
20155;DHT22;10238;49.556;10.956;2023-09-07T12:11:58;33.90;95.30
20155;DHT22;10238;49.556;10.956;2023-09-07T12:14:46;33.60;92.00
20155;DHT22;10238;49.556;10.956;2023-09-07T12:17:34;33.50;92.60
20155;DHT22;10238;49.556;10.956;2023-09-07T12:20:23;33.40;96.10
20155;DHT22;10238;49.556;10.956;2023-09-07T12:23:13;33.60;95.90
20155;DHT22;10238;49.556;10.956;2023-09-07T12:26:01;33.70;96.00
20155;DHT22;10238;49.556;10.956;2023-09-07T12:28:51;33.90;92.10
20155;DHT22;10238;49.556;10.956;2023-09-07T12:31:38;33.90;93.60
20155;DHT22;10238;49.556;10.956;2023-09-07T12:34:26;33.80;91.60
20155;DHT22;10238;49.556;10.956;2023-09-07T12:37:19;33.70;93.00
20155;DHT22;10238;49.556;10.956;2023-09-07T12:40:11;33.80;94.10
20155;DHT22;10238;49.556;10.956;2023-09-07T12:42:59;33.90;95.10
20155;DHT22;10238;49.556;10.956;2023-09-07T12:45:47;33.90;92.60
20155;DHT22;10238;49.556;10.956;2023-09-07T12:48:35;34.00;91.90
20155;DHT22;10238;49.556;10.956;2023-09-07T12:51:23;33.80;91.20
20155;DHT22;10238;49.556;10.956;2023-09-07T12:54:12;33.70;90.80
20155;DHT22;10238;49.556;10.956;2023-09-07T12:56:59;33.70;92.00
20155;DHT22;10238;49.556;10.956;2023-09-07T12:59:47;33.90;92.30
20155;DHT22;10238;49.556;10.956;2023-09-07T13:02:35;33.90;87.30
20155;DHT22;10238;49.556;10.956;2023-09-07T13:05:23;33.90;91.40
20155;DHT22;10238;49.556;10.956;2023-09-07T13:08:11;34.00;93.40
20155;DHT22;10238;49.556;10.956;2023-09-07T13:11:00;34.10;91.50
20155;DHT22;10238;49.556;10.956;2023-09-07T13:13:47;34.30;90.40
20155;DHT22;10238;49.556;10.956;2023-09-07T13:16:35;34.20;91.00
20155;DHT22;10238;49.556;10.956;2023-09-07T13:19:22;34.50;90.50
20155;DHT22;10238;49.556;10.956;2023-09-07T13:22:10;34.70;91.30
20155;DHT22;10238;49.556;10.956;2023-09-07T13:24:58;34.80;90.10
20155;DHT22;10238;49.556;10.956;2023-09-07T13:27:48;34.80;90.20
20155;DHT22;10238;49.556;10.956;2023-09-07T13:30:36;34.90;87.80
20155;DHT22;10238;49.556;10.956;2023-09-07T13:33:24;35.10;90.90
20155;DHT22;10238;49.556;10.956;2023-09-07T13:36:12;35.10;91.50
20155;DHT22;10238;49.556;10.956;2023-09-07T13:38:59;35.10;90.30
20155;DHT22;10238;49.556;10.956;2023-09-07T13:41:47;35.00;90.30
20155;DHT22;10238;49.556;10.956;2023-09-07T13:44:36;34.90;85.70
20155;DHT22;10238;49.556;10.956;2023-09-07T13:47:24;35.00;88.90
20155;DHT22;10238;49.556;10.956;2023-09-07T13:50:15;35.10;89.50
20155;DHT22;10238;49.556;10.956;2023-09-07T13:53:03;35.20;90.80
20155;DHT22;10238;49.556;10.956;2023-09-07T13:55:51;35.30;89.70
20155;DHT22;10238;49.556;10.956;2023-09-07T13:58:39;35.30;90.50
20155;DHT22;10238;49.556;10.956;2023-09-07T14:01:29;35.30;87.10
20155;DHT22;10238;49.556;10.956;2023-09-07T14:04:18;35.10;85.90
20155;DHT22;10238;49.556;10.956;2023-09-07T14:07:05;35.00;90.90
20155;DHT22;10238;49.556;10.956;2023-09-07T14:09:54;34.90;86.10
20155;DHT22;10238;49.556;10.956;2023-09-07T14:12:42;34.80;90.00
20155;DHT22;10238;49.556;10.956;2023-09-07T14:15:30;34.90;89.70
20155;DHT22;10238;49.556;10.956;2023-09-07T14:18:19;34.80;88.00
20155;DHT22;10238;49.556;10.956;2023-09-07T14:21:07;34.70;87.20
20155;DHT22;10238;49.556;10.956;2023-09-07T14:23:55;34.50;88.60
20155;DHT22;10238;49.556;10.956;2023-09-07T14:26:42;34.60;88.40
20155;DHT22;10238;49.556;10.956;2023-09-07T14:29:31;34.80;91.10
20155;DHT22;10238;49.556;10.956;2023-09-07T14:32:19;34.80;90.30
20155;DHT22;10238;49.556;10.956;2023-09-07T14:35:08;34.50;89.70
20155;DHT22;10238;49.556;10.956;2023-09-07T14:37:57;34.50;84.20
20155;DHT22;10238;49.556;10.956;2023-09-07T14:40:45;34.30;87.10
20155;DHT22;10238;49.556;10.956;2023-09-07T14:43:35;34.30;86.00
20155;DHT22;10238;49.556;10.956;2023-09-07T14:46:22;34.60;91.20
20155;DHT22;10238;49.556;10.956;2023-09-07T14:49:10;34.40;86.50
20155;DHT22;10238;49.556;10.956;2023-09-07T14:51:59;34.40;87.10
20155;DHT22;10238;49.556;10.956;2023-09-07T14:54:47;34.30;85.00
20155;DHT22;10238;49.556;10.956;2023-09-07T14:57:35;34.20;87.50
20155;DHT22;10238;49.556;10.956;2023-09-07T15:00:23;34.40;86.60
20155;DHT22;10238;49.556;10.956;2023-09-07T15:03:13;34.50;89.70
20155;DHT22;10238;49.556;10.956;2023-09-07T15:06:00;34.50;86.70
20155;DHT22;10238;49.556;10.956;2023-09-07T15:08:49;34.50;88.20
20155;DHT22;10238;49.556;10.956;2023-09-07T15:11:37;34.60;89.40
20155;DHT22;10238;49.556;10.956;2023-09-07T15:14:28;34.70;86.30
20155;DHT22;10238;49.556;10.956;2023-09-07T15:17:16;34.80;90.00
20155;DHT22;10238;49.556;10.956;2023-09-07T15:20:05;34.80;84.40
20155;DHT22;10238;49.556;10.956;2023-09-07T15:22:54;34.80;90.10
20155;DHT22;10238;49.556;10.956;2023-09-07T15:25:43;34.90;90.30
20155;DHT22;10238;49.556;10.956;2023-09-07T15:28:30;35.10;90.00
20155;DHT22;10238;49.556;10.956;2023-09-07T15:31:18;35.00;86.70
20155;DHT22;10238;49.556;10.956;2023-09-07T15:34:06;34.80;86.90
20155;DHT22;10238;49.556;10.956;2023-09-07T15:36:54;34.90;90.40
20155;DHT22;10238;49.556;10.956;2023-09-07T15:39:41;34.70;88.90
20155;DHT22;10238;49.556;10.956;2023-09-07T15:42:32;34.40;89.60
20155;DHT22;10238;49.556;10.956;2023-09-07T15:45:22;34.10;85.40
20155;DHT22;10238;49.556;10.956;2023-09-07T15:48:09;33.80;88.30
20155;DHT22;10238;49.556;10.956;2023-09-07T15:50:57;33.60;90.80
20155;DHT22;10238;49.556;10.956;2023-09-07T15:53:44;33.50;86.30
20155;DHT22;10238;49.556;10.956;2023-09-07T15:56:32;33.40;91.20
20155;DHT22;10238;49.556;10.956;2023-09-07T15:59:21;33.20;85.30
20155;DHT22;10238;49.556;10.956;2023-09-07T16:02:08;32.90;88.20
20155;DHT22;10238;49.556;10.956;2023-09-07T16:04:56;32.70;88.10
20155;DHT22;10238;49.556;10.956;2023-09-07T16:07:44;32.40;88.80
20155;DHT22;10238;49.556;10.956;2023-09-07T16:10:33;32.20;86.50
20155;DHT22;10238;49.556;10.956;2023-09-07T16:13:22;32.00;89.00
20155;DHT22;10238;49.556;10.956;2023-09-07T16:16:11;31.70;89.70
20155;DHT22;10238;49.556;10.956;2023-09-07T16:18:58;31.60;88.90
20155;DHT22;10238;49.556;10.956;2023-09-07T16:21:46;31.50;87.40
20155;DHT22;10238;49.556;10.956;2023-09-07T16:24:34;31.20;88.20
20155;DHT22;10238;49.556;10.956;2023-09-07T16:27:22;30.90;88.50
20155;DHT22;10238;49.556;10.956;2023-09-07T16:30:10;30.50;90.00
20155;DHT22;10238;49.556;10.956;2023-09-07T16:32:59;30.30;97.80
20155;DHT22;10238;49.556;10.956;2023-09-07T16:35:47;30.00;88.50
20155;DHT22;10238;49.556;10.956;2023-09-07T16:38:34;29.80;90.80
20155;DHT22;10238;49.556;10.956;2023-09-07T16:41:22;29.70;91.50
20155;DHT22;10238;49.556;10.956;2023-09-07T16:44:09;29.60;91.60
20155;DHT22;10238;49.556;10.956;2023-09-07T16:46:57;29.40;91.70
20155;DHT22;10238;49.556;10.956;2023-09-07T16:49:46;29.30;91.10
20155;DHT22;10238;49.556;10.956;2023-09-07T16:52:34;29.10;90.90
20155;DHT22;10238;49.556;10.956;2023-09-07T16:55:22;29.00;91.70
20155;DHT22;10238;49.556;10.956;2023-09-07T16:58:10;28.90;92.00
20155;DHT22;10238;49.556;10.956;2023-09-07T17:01:03;28.80;92.70
20155;DHT22;10238;49.556;10.956;2023-09-07T17:03:51;28.70;91.90
20155;DHT22;10238;49.556;10.956;2023-09-07T17:06:40;28.50;91.50
20155;DHT22;10238;49.556;10.956;2023-09-07T17:09:30;28.40;93.30
20155;DHT22;10238;49.556;10.956;2023-09-07T17:12:18;28.30;93.90
20155;DHT22;10238;49.556;10.956;2023-09-07T17:15:07;28.10;93.90
20155;DHT22;10238;49.556;10.956;2023-09-07T17:17:55;28.00;93.20
20155;DHT22;10238;49.556;10.956;2023-09-07T17:20:43;27.90;93.60
20155;DHT22;10238;49.556;10.956;2023-09-07T17:23:33;27.80;94.50
20155;DHT22;10238;49.556;10.956;2023-09-07T17:26:21;27.60;94.20
20155;DHT22;10238;49.556;10.956;2023-09-07T17:29:08;27.40;94.80